Time;durP1;ratioP1;P1;durP2;ratioP2;P2;SDS_P1;SDS_P2;PMS_P1;PMS_P2;Temp;Humidity;BMP_temperature;BMP_pressure;BME280_temperature;BME280_humidity;BME280_pressure;Samples;Min_cycle;Max_cycle;Signal;HPM_P1;HPM_P2
2023/08/18 00:01:54;;;;;;;15.20;10.10;;;;;;;18.57;100.00;101167.27;108803;1251;59570;-56
2023/08/18 00:04:20;;;;;;;14.20;10.00;;;;;;;18.57;100.00;101169.86;108650;1251;61340;-55
2023/08/18 00:06:47;;;;;;;16.20;10.90;;;;;;;18.57;100.00;101170.12;108865;1250;59293;-55
2023/08/18 00:09:14;;;;;;;19.10;9.80;;;;;;;18.56;100.00;101167.77;108792;1251;74005;-55
2023/08/18 00:11:40;;;;;;;14.80;9.60;;;;;;;18.52;100.00;101171.84;109085;1253;59280;-61
2023/08/18 00:14:07;;;;;;;16.10;10.30;;;;;;;18.49;100.00;101167.33;108815;1250;59930;-56
2023/08/18 00:16:33;;;;;;;14.60;10.10;;;;;;;18.46;100.00;101164.28;108651;1252;61260;-56
2023/08/18 00:18:59;;;;;;;16.70;11.00;;;;;;;18.45;100.00;101163.14;108977;1253;59485;-57
2023/08/18 00:21:26;;;;;;;16.30;10.20;;;;;;;18.44;100.00;101163.77;108761;1253;59412;-58
2023/08/18 00:23:53;;;;;;;16.70;10.80;;;;;;;18.45;100.00;101163.19;109025;1253;59402;-59
2023/08/18 00:26:19;;;;;;;14.90;11.00;;;;;;;18.45;100.00;101161.02;108892;1252;59487;-52
2023/08/18 00:28:45;;;;;;;15.90;10.00;;;;;;;18.41;100.00;101160.67;108595;1250;61340;-55
2023/08/18 00:31:12;;;;;;;15.60;10.60;;;;;;;18.37;100.00;101162.67;108833;1253;59495;-56
2023/08/18 00:33:38;;;;;;;14.30;10.10;;;;;;;18.30;100.00;101161.52;108659;1253;59231;-59
2023/08/18 00:36:05;;;;;;;18.40;11.00;;;;;;;18.24;100.00;101158.24;109150;1253;59894;-55
2023/08/18 00:38:31;;;;;;;18.80;11.40;;;;;;;18.19;100.00;101160.91;108984;1253;59044;-53
2023/08/18 00:40:58;;;;;;;19.90;11.50;;;;;;;18.13;100.00;101160.65;108657;1250;59413;-58
2023/08/18 00:43:24;;;;;;;19.50;12.40;;;;;;;18.12;100.00;101157.98;108575;1253;60802;-52
2023/08/18 00:45:53;;;;;;;19.40;12.60;;;;;;;18.13;100.00;101163.09;109146;1253;59473;-56
2023/08/18 00:48:21;;;;;;;20.00;13.00;;;;;;;18.15;100.00;101159.49;108917;1253;71384;-57
2023/08/18 00:50:48;;;;;;;20.50;13.40;;;;;;;18.16;100.00;101155.02;109029;1251;71527;-56
2023/08/18 00:53:15;;;;;;;19.20;13.30;;;;;;;18.18;100.00;101152.12;108802;1255;62047;-57
2023/08/18 00:55:42;;;;;;;22.80;13.70;;;;;;;18.19;100.00;101152.36;108971;1252;60168;-57
2023/08/18 00:58:08;;;;;;;20.80;14.00;;;;;;;18.17;100.00;101152.79;108968;1255;74662;-56
2023/08/18 01:00:35;;;;;;;21.00;13.90;;;;;;;18.15;100.00;101147.79;108251;1252;71863;-54
2023/08/18 01:03:04;;;;;;;22.10;13.30;;;;;;;18.15;100.00;101146.77;108721;1252;72764;-58
2023/08/18 01:05:32;;;;;;;17.60;12.80;;;;;;;18.15;100.00;101145.36;108525;1251;62090;-59
2023/08/18 01:08:00;;;;;;;21.80;13.20;;;;;;;18.13;100.00;101145.98;108754;1250;59403;-56
2023/08/18 01:10:30;;;;;;;20.10;14.00;;;;;;;18.12;100.00;101149.09;109170;1251;74817;-59
2023/08/18 01:13:10;;;;;;;22.80;13.90;;;;;;;18.13;100.00;101145.63;108759;1252;71594;-57
2023/08/18 01:15:41;;;;;;;22.70;14.60;;;;;;;18.12;100.00;101145.77;108725;1252;72699;-62
2023/08/18 01:18:10;;;;;;;23.00;14.70;;;;;;;18.12;100.00;101148.42;108709;1253;61392;-60
2023/08/18 01:20:37;;;;;;;23.50;14.50;;;;;;;18.14;100.00;101146.58;108573;1255;59298;-54
2023/08/18 01:23:04;;;;;;;22.20;14.20;;;;;;;18.18;100.00;101151.95;108747;1253;73274;-59
2023/08/18 01:25:31;;;;;;;20.20;13.80;;;;;;;18.19;100.00;101159.67;108807;1251;71215;-58
2023/08/18 01:28:00;;;;;;;24.70;13.70;;;;;;;18.19;100.00;101162.11;108614;1251;70344;-57
2023/08/18 01:30:35;;;;;;;21.20;14.00;;;;;;;18.21;100.00;101164.71;109064;1253;61251;-54
2023/08/18 01:33:11;;;;;;;21.50;13.30;;;;;;;18.24;100.00;101152.38;108695;1253;60879;-59
2023/08/18 01:35:39;;;;;;;20.10;13.10;;;;;;;18.26;100.00;101143.65;108656;1253;75291;-59
2023/08/18 01:38:07;;;;;;;22.30;13.30;;;;;;;18.27;100.00;101144.84;108994;1253;71116;-60
2023/08/18 01:40:36;;;;;;;23.20;13.80;;;;;;;18.29;100.00;101145.44;108984;1252;72711;-55
2023/08/18 01:43:04;;;;;;;22.00;13.70;;;;;;;18.28;100.00;101134.55;108780;1253;62735;-61
2023/08/18 01:45:32;;;;;;;19.40;13.80;;;;;;;18.25;100.00;101136.00;108925;1253;60227;-57
2023/08/18 01:47:58;;;;;;;23.50;14.90;;;;;;;18.26;100.00;101137.57;108847;1255;74839;-56
2023/08/18 01:50:25;;;;;;;23.40;14.50;;;;;;;18.24;100.00;101138.75;108995;1253;59050;-58
2023/08/18 01:52:51;;;;;;;20.30;14.30;;;;;;;18.24;100.00;101148.52;108674;1253;59082;-58
2023/08/18 01:55:18;;;;;;;25.00;15.30;;;;;;;18.23;100.00;101146.52;108553;1253;59246;-57
2023/08/18 01:57:44;;;;;;;21.60;14.90;;;;;;;18.21;100.00;101147.69;108701;1253;60366;-54
2023/08/18 02:00:11;;;;;;;23.50;14.90;;;;;;;18.20;100.00;101146.77;108527;1251;59842;-59
2023/08/18 02:02:46;;;;;;;28.70;15.80;;;;;;;18.20;100.00;101143.39;108664;1252;69696;-58
2023/08/18 02:05:12;;;;;;;27.20;15.90;;;;;;;18.20;100.00;101140.17;108585;1252;71437;-57
2023/08/18 02:07:39;;;;;;;29.40;16.30;;;;;;;18.20;100.00;101141.20;108625;1253;60808;-59
2023/08/18 02:10:06;;;;;;;25.90;15.90;;;;;;;18.21;100.00;101134.98;108590;1253;61218;-57
2023/08/18 02:12:32;;;;;;;24.90;16.50;;;;;;;18.20;100.00;101135.16;108548;1252;73479;-56
2023/08/18 02:14:59;;;;;;;24.60;16.10;;;;;;;18.19;100.00;101136.16;108828;1253;59138;-61
2023/08/18 02:17:29;;;;;;;25.30;15.40;;;;;;;18.20;100.00;101131.36;108783;1253;71588;-56
2023/08/18 02:19:58;;;;;;;27.30;16.00;;;;;;;18.20;100.00;101130.30;109115;1253;60514;-56
2023/08/18 02:22:25;;;;;;;24.70;16.00;;;;;;;18.22;100.00;101121.77;108934;1251;61227;-59
2023/08/18 02:24:53;;;;;;;23.60;15.90;;;;;;;18.23;100.00;101117.40;108806;1252;72518;-60
2023/08/18 02:27:20;;;;;;;27.00;16.60;;;;;;;18.24;100.00;101116.96;108567;1253;70072;-52
2023/08/18 02:29:46;;;;;;;26.50;16.30;;;;;;;18.25;100.00;101112.91;108672;1252;71576;-57
2023/08/18 02:32:13;;;;;;;33.00;16.50;;;;;;;18.27;100.00;101115.34;109047;1253;61286;-59
2023/08/18 02:34:40;;;;;;;25.10;15.70;;;;;;;18.29;100.00;101113.09;108540;1252;60674;-58
2023/08/18 02:37:06;;;;;;;25.40;15.70;;;;;;;18.28;100.00;101113.07;108397;1251;61187;-57
2023/08/18 02:39:33;;;;;;;27.60;16.00;;;;;;;18.29;100.00;101105.03;108474;1251;59928;-56
2023/08/18 02:41:59;;;;;;;26.50;15.80;;;;;;;18.28;100.00;101108.19;108666;1251;71467;-57
2023/08/18 02:44:26;;;;;;;26.50;16.00;;;;;;;18.28;100.00;101106.41;108724;1252;59587;-58
2023/08/18 02:46:52;;;;;;;27.30;16.60;;;;;;;18.29;100.00;101105.41;108638;1252;59348;-61
2023/08/18 02:49:19;;;;;;;26.80;15.50;;;;;;;18.28;100.00;101099.64;108910;1253;58949;-58
2023/08/18 02:51:45;;;;;;;27.90;16.30;;;;;;;18.26;100.00;101102.08;108756;1251;59133;-57
2023/08/18 02:54:12;;;;;;;25.20;16.40;;;;;;;18.25;100.00;101102.25;108609;1253;61106;-59
2023/08/18 02:56:38;;;;;;;26.10;15.30;;;;;;;18.24;100.00;101107.34;108969;1254;59192;-60
2023/08/18 02:59:04;;;;;;;28.70;15.50;;;;;;;18.22;100.00;101099.64;108568;1252;59574;-59
2023/08/18 03:01:31;;;;;;;28.10;15.70;;;;;;;18.20;100.00;101096.08;108660;1253;61342;-58
2023/08/18 03:03:58;;;;;;;22.80;14.30;;;;;;;18.19;100.00;101097.34;108885;1252;59088;-56
2023/08/18 03:06:24;;;;;;;23.40;15.30;;;;;;;18.18;100.00;101101.23;109006;1253;59249;-58
2023/08/18 03:08:51;;;;;;;24.30;15.20;;;;;;;18.14;100.00;101101.73;108454;1255;59298;-57
2023/08/18 03:11:17;;;;;;;22.90;15.40;;;;;;;18.16;100.00;101111.45;108569;1253;59452;-61
2023/08/18 03:13:44;;;;;;;21.70;14.90;;;;;;;18.15;100.00;101108.27;108645;1253;59759;-57
2023/08/18 03:16:10;;;;;;;21.90;14.90;;;;;;;18.16;100.00;101111.78;108568;1255;59990;-58
2023/08/18 03:18:37;;;;;;;23.60;15.40;;;;;;;18.17;100.00;101107.88;108752;1253;59219;-60
2023/08/18 03:21:03;;;;;;;24.50;15.10;;;;;;;18.18;100.00;101104.98;108580;1252;59141;-56
2023/08/18 03:23:30;;;;;;;24.90;15.20;;;;;;;18.21;100.00;101101.38;108676;1252;61253;-59
2023/08/18 03:26:02;;;;;;;22.00;14.70;;;;;;;18.23;100.00;101101.94;108807;1253;73247;-60
2023/08/18 03:28:35;;;;;;;26.30;15.20;;;;;;;18.24;100.00;101101.92;108964;1253;69623;-56
2023/08/18 03:31:04;;;;;;;27.60;15.10;;;;;;;18.24;100.00;101100.15;108622;1253;74404;-59
2023/08/18 03:33:31;;;;;;;28.70;15.30;;;;;;;18.25;100.00;101099.02;108567;1253;62117;-62
2023/08/18 03:35:58;;;;;;;30.20;16.30;;;;;;;18.26;100.00;101099.94;108617;1253;58974;-58
2023/08/18 03:38:25;;;;;;;25.60;15.00;;;;;;;18.26;100.00;101101.34;108540;1251;73908;-57
2023/08/18 03:41:12;;;;;;;30.60;16.00;;;;;;;18.24;100.00;101100.77;108277;1253;71214;-54
2023/08/18 03:43:39;;;;;;;24.70;15.40;;;;;;;18.24;100.00;101101.89;108648;1252;71508;-58
2023/08/18 03:46:25;;;;;;;27.40;15.20;;;;;;;18.24;100.00;101099.98;109007;1252;59108;-55
2023/08/18 03:48:52;;;;;;;26.60;14.80;;;;;;;18.25;100.00;101095.27;108316;1252;61171;-52
2023/08/18 03:51:18;;;;;;;23.20;14.00;;;;;;;18.25;100.00;101092.86;108437;1251;73811;-56
2023/08/18 03:53:45;;;;;;;21.30;13.60;;;;;;;18.26;100.00;101097.30;108491;1251;60252;-59
2023/08/18 03:56:12;;;;;;;19.70;13.30;;;;;;;18.27;100.00;101096.59;108518;1253;71517;-55
2023/08/18 03:58:38;;;;;;;18.40;13.40;;;;;;;18.27;100.00;101091.12;108666;1255;59516;-58
2023/08/18 04:01:07;;;;;;;17.10;12.90;;;;;;;18.28;100.00;101093.52;108618;1253;59145;-54
2023/08/18 04:03:35;;;;;;;21.30;12.20;;;;;;;18.27;100.00;101092.86;108849;1253;75479;-54
2023/08/18 04:06:03;;;;;;;17.90;11.60;;;;;;;18.26;100.00;101096.40;108919;1253;71401;-57
2023/08/18 04:08:34;;;;;;;19.20;11.90;;;;;;;18.25;100.00;101098.94;108767;1253;72714;-56
2023/08/18 04:11:00;;;;;;;15.50;12.20;;;;;;;18.25;100.00;101096.79;108452;1255;62445;-59
2023/08/18 04:13:27;;;;;;;14.20;11.30;;;;;;;18.27;100.00;101092.45;108764;1254;59574;-54
2023/08/18 04:15:53;;;;;;;14.90;11.00;;;;;;;18.27;100.00;101091.38;108687;1255;59206;-56
2023/08/18 04:18:20;;;;;;;14.10;10.90;;;;;;;18.27;100.00;101092.57;108635;1253;59466;-57
2023/08/18 04:20:46;;;;;;;15.70;10.30;;;;;;;18.28;100.00;101091.91;108773;1253;61266;-58
2023/08/18 04:23:13;;;;;;;16.10;11.10;;;;;;;18.29;100.00;101090.33;109085;1250;59625;-57
2023/08/18 04:25:43;;;;;;;16.20;10.30;;;;;;;18.31;100.00;101089.73;108790;1251;59210;-54
2023/08/18 04:28:09;;;;;;;13.10;10.50;;;;;;;18.33;100.00;101091.02;108401;1252;73889;-53
2023/08/18 04:30:37;;;;;;;14.80;9.80;;;;;;;18.33;100.00;101093.02;108272;1252;61344;-57
2023/08/18 04:33:04;;;;;;;12.90;10.30;;;;;;;18.34;100.00;101096.63;108450;1253;71724;-56
2023/08/18 04:35:31;;;;;;;14.70;10.40;;;;;;;18.37;100.00;101093.59;108727;1250;61771;-51
2023/08/18 04:37:57;;;;;;;12.50;10.10;;;;;;;18.39;100.00;101100.89;108965;1254;59968;-50
2023/08/18 04:40:24;;;;;;;15.20;10.10;;;;;;;18.41;100.00;101099.84;108481;1253;60169;-50
2023/08/18 04:42:50;;;;;;;35.70;28.50;;;;;;;18.42;100.00;101100.16;109068;1255;61014;-54
2023/08/18 04:45:16;;;;;;;12.10;9.80;;;;;;;18.49;100.00;101104.48;108575;1256;67191;-55
2023/08/18 04:47:43;;;;;;;12.80;10.30;;;;;;;18.62;100.00;101104.66;108692;1253;61282;-54
2023/08/18 04:50:09;;;;;;;12.30;9.60;;;;;;;18.72;100.00;101102.96;108356;1252;61231;-58
2023/08/18 04:52:36;;;;;;;11.70;10.00;;;;;;;18.84;100.00;101107.52;108391;1253;59369;-53
2023/08/18 04:55:02;;;;;;;11.90;9.90;;;;;;;18.97;100.00;101107.37;108577;1255;61461;-54
2023/08/18 04:57:29;;;;;;;10.80;8.90;;;;;;;19.11;100.00;101106.23;108828;1253;60014;-52
2023/08/18 04:59:55;;;;;;;14.00;9.60;;;;;;;19.24;100.00;101108.08;108880;1251;61240;-50
2023/08/18 05:02:22;;;;;;;11.20;9.50;;;;;;;19.35;100.00;101106.98;108998;1255;60274;-53
2023/08/18 05:04:48;;;;;;;10.20;9.20;;;;;;;19.42;100.00;101105.48;108195;1254;61277;-56
2023/08/18 05:07:14;;;;;;;9.60;8.40;;;;;;;19.57;100.00;101106.90;108117;1253;59482;-55
2023/08/18 05:09:41;;;;;;;10.30;8.40;;;;;;;19.75;100.00;101102.55;107989;1254;61226;-52
2023/08/18 05:12:08;;;;;;;10.70;8.70;;;;;;;19.98;100.00;101102.24;107993;1255;61352;-51
2023/08/18 05:14:35;;;;;;;10.00;8.10;;;;;;;20.15;100.00;101101.98;108444;1254;59470;-56
2023/08/18 05:17:01;;;;;;;9.30;8.10;;;;;;;20.32;99.98;101098.66;108432;1254;60109;-56
2023/08/18 05:19:27;;;;;;;9.50;8.50;;;;;;;20.42;99.24;101096.37;108431;1253;59403;-51
2023/08/18 05:21:55;;;;;;;12.40;9.50;;;;;;;20.48;98.68;101095.62;108513;1252;59700;-50
2023/08/18 05:24:21;;;;;;;13.00;8.90;;;;;;;20.56;97.73;101097.59;108342;1254;61238;-56
2023/08/18 05:26:48;;;;;;;11.80;8.00;;;;;;;20.56;96.94;101101.05;107756;1253;62076;-55
2023/08/18 05:29:14;;;;;;;10.50;8.60;;;;;;;20.61;96.62;101098.00;108008;1256;61241;-53
2023/08/18 05:31:40;;;;;;;12.70;10.00;;;;;;;20.60;96.11;101097.07;108517;1252;61283;-56
2023/08/18 05:34:07;;;;;;;12.90;8.80;;;;;;;20.60;96.09;101094.61;107996;1256;59518;-54
2023/08/18 05:36:34;;;;;;;12.20;8.50;;;;;;;20.69;96.39;101092.98;107973;1254;60897;-56
2023/08/18 05:39:00;;;;;;;10.40;8.10;;;;;;;20.80;95.76;101097.09;108479;1255;61388;-54
2023/08/18 05:41:27;;;;;;;12.80;10.80;;;;;;;20.92;95.16;101100.16;108376;1257;59241;-49
2023/08/18 05:43:53;;;;;;;21.50;16.10;;;;;;;21.02;94.63;101101.64;107796;1253;61289;-51
2023/08/18 05:46:19;;;;;;;21.40;15.40;;;;;;;21.10;93.65;101104.36;108477;1254;59030;-53
2023/08/18 05:48:46;;;;;;;13.10;9.30;;;;;;;21.15;93.00;101110.41;108525;1254;59858;-56
2023/08/18 05:51:14;;;;;;;12.70;8.30;;;;;;;21.22;92.39;101102.69;108332;1254;61264;-54
2023/08/18 05:53:40;;;;;;;9.50;8.50;;;;;;;21.27;91.79;101102.73;108328;1253;74874;-54
2023/08/18 05:56:07;;;;;;;14.20;8.50;;;;;;;21.32;91.37;101099.77;108859;1252;59861;-53
2023/08/18 05:58:33;;;;;;;13.10;8.60;;;;;;;21.29;90.86;101097.66;108526;1256;61205;-50
2023/08/18 06:01:00;;;;;;;15.70;8.90;;;;;;;21.29;90.90;101095.48;108867;1253;61108;-54
2023/08/18 06:03:26;;;;;;;11.60;8.40;;;;;;;21.27;90.71;101100.94;108518;1254;59331;-52
2023/08/18 06:05:53;;;;;;;12.80;8.50;;;;;;;21.25;90.82;101103.05;108689;1252;59508;-49
2023/08/18 06:08:19;;;;;;;10.70;8.10;;;;;;;21.31;90.92;101105.64;108264;1253;61234;-53
2023/08/18 06:10:46;;;;;;;19.90;15.40;;;;;;;21.39;90.53;101105.70;108499;1251;59636;-53
2023/08/18 06:13:13;;;;;;;13.80;9.60;;;;;;;21.44;90.17;101107.71;108691;1254;61208;-54
2023/08/18 06:15:39;;;;;;;13.40;7.90;;;;;;;21.50;89.91;101105.64;108178;1254;61157;-54
2023/08/18 06:18:06;;;;;;;10.10;8.00;;;;;;;21.57;89.56;101105.63;108568;1253;73485;-55
2023/08/18 06:20:32;;;;;;;10.60;8.10;;;;;;;21.60;89.14;101104.56;108362;1252;69071;-50
2023/08/18 06:22:59;;;;;;;9.70;7.60;;;;;;;21.66;88.82;101106.99;108287;1252;61338;-50
2023/08/18 06:25:25;;;;;;;11.00;8.30;;;;;;;21.69;88.66;101107.92;108346;1256;61291;-56
2023/08/18 06:27:52;;;;;;;9.30;7.40;;;;;;;21.70;88.54;101112.14;109034;1254;59319;-55
2023/08/18 06:30:18;;;;;;;11.30;9.30;;;;;;;21.73;88.41;101113.61;108538;1252;60321;-53
2023/08/18 06:32:45;;;;;;;13.70;9.60;;;;;;;21.73;88.27;101108.11;108145;1253;61087;-51
2023/08/18 06:35:12;;;;;;;11.90;8.70;;;;;;;21.73;88.14;101113.30;108891;1253;72903;-57
2023/08/18 06:37:39;;;;;;;8.80;7.90;;;;;;;21.73;88.03;101108.54;108604;1254;59190;-54
2023/08/18 06:40:06;;;;;;;10.60;8.30;;;;;;;21.78;88.16;101108.59;109144;1256;59000;-52
2023/08/18 06:42:33;;;;;;;9.30;8.20;;;;;;;21.93;87.96;101111.70;109206;1254;73444;-56
2023/08/18 06:44:59;;;;;;;9.90;8.30;;;;;;;22.07;87.54;101115.27;109164;1254;59160;-54
2023/08/18 06:47:26;;;;;;;10.30;8.30;;;;;;;22.24;86.94;101109.42;108840;1252;61194;-55
2023/08/18 06:49:53;;;;;;;9.60;8.20;;;;;;;22.32;86.11;101108.66;109164;1252;63356;-53
2023/08/18 06:52:19;;;;;;;10.00;8.70;;;;;;;22.35;85.71;101111.80;108343;1253;61122;-52
2023/08/18 06:54:47;;;;;;;15.60;12.60;;;;;;;22.38;85.05;101111.91;108633;1254;61151;-49
2023/08/18 06:57:13;;;;;;;10.20;8.80;;;;;;;22.42;84.99;101109.11;109144;1254;71106;-53
2023/08/18 06:59:40;;;;;;;23.90;19.90;;;;;;;22.45;84.69;101108.83;109037;1254;237977;-53
2023/08/18 07:02:06;;;;;;;11.40;9.40;;;;;;;22.46;84.42;101109.81;109168;1254;58873;-52
2023/08/18 07:04:33;;;;;;;15.10;10.00;;;;;;;22.43;84.43;101109.72;109174;1252;60565;-53
2023/08/18 07:06:59;;;;;;;11.00;9.30;;;;;;;22.44;84.53;101109.35;109169;1254;59714;-51
2023/08/18 07:09:26;;;;;;;10.40;8.40;;;;;;;22.48;84.50;101113.54;109206;1253;59204;-54
2023/08/18 07:11:52;;;;;;;12.30;8.30;;;;;;;22.55;84.50;101114.15;108549;1252;61371;-54
2023/08/18 07:14:19;;;;;;;14.60;9.50;;;;;;;22.60;84.33;101109.77;108624;1254;59380;-52
2023/08/18 07:16:45;;;;;;;11.20;8.90;;;;;;;22.68;84.05;101111.39;108594;1254;61146;-53
2023/08/18 07:19:12;;;;;;;13.10;11.00;;;;;;;22.75;83.83;101113.09;108541;1254;59655;-54
2023/08/18 07:21:38;;;;;;;10.90;9.70;;;;;;;22.82;83.25;101113.14;108333;1253;61220;-53
2023/08/18 07:24:05;;;;;;;11.60;9.70;;;;;;;22.88;83.35;101111.65;108459;1254;59274;-53
2023/08/18 07:26:32;;;;;;;11.70;10.40;;;;;;;23.00;83.12;101109.25;108952;1253;61538;-54
2023/08/18 07:28:58;;;;;;;11.70;10.50;;;;;;;23.09;83.21;101107.40;108898;1254;58961;-56
2023/08/18 07:31:25;;;;;;;12.70;9.60;;;;;;;23.16;82.52;101110.48;108336;1253;61315;-54
2023/08/18 07:33:52;;;;;;;11.00;9.80;;;;;;;23.21;82.08;101112.42;108515;1253;59908;-53
2023/08/18 07:36:18;;;;;;;12.90;9.90;;;;;;;23.12;81.97;101104.41;108518;1255;72507;-56
2023/08/18 07:38:46;;;;;;;12.20;9.00;;;;;;;23.16;82.53;101104.04;108195;1253;61366;-50
2023/08/18 07:41:12;;;;;;;10.40;9.30;;;;;;;23.24;82.45;101103.48;108166;1253;59322;-50
2023/08/18 07:43:39;;;;;;;12.00;10.30;;;;;;;23.35;82.39;101106.02;108701;1251;74570;-54
2023/08/18 07:46:05;;;;;;;11.60;10.30;;;;;;;23.44;82.03;101106.09;108473;1253;59503;-55
2023/08/18 07:48:32;;;;;;;11.10;9.90;;;;;;;23.54;81.81;101111.42;108823;1256;72107;-52
2023/08/18 07:50:58;;;;;;;12.80;9.80;;;;;;;23.61;81.62;101107.66;108228;1253;61440;-49
2023/08/18 07:53:26;;;;;;;13.60;11.10;;;;;;;23.63;81.33;101112.72;108415;1253;59209;-54
2023/08/18 07:55:52;;;;;;;11.10;9.00;;;;;;;23.68;81.14;101112.56;108568;1254;73476;-52
2023/08/18 07:58:19;;;;;;;11.10;9.70;;;;;;;23.77;80.98;101113.02;108449;1254;70484;-53
2023/08/18 08:00:47;;;;;;;12.80;11.00;;;;;;;23.85;80.68;101114.91;108202;1252;61160;-54
2023/08/18 08:03:14;;;;;;;10.70;9.50;;;;;;;23.89;79.96;101115.83;108430;1252;61149;-52
2023/08/18 08:05:41;;;;;;;13.40;10.00;;;;;;;23.90;79.63;101117.08;108710;1253;59411;-54
2023/08/18 08:08:07;;;;;;;25.20;20.80;;;;;;;23.98;80.17;101117.82;108518;1254;75070;-55
2023/08/18 08:10:34;;;;;;;13.30;10.60;;;;;;;24.05;79.51;101117.20;108085;1253;61208;-55
2023/08/18 08:13:00;;;;;;;10.90;9.60;;;;;;;24.09;79.29;101115.22;108621;1254;59577;-54
2023/08/18 08:15:27;;;;;;;11.10;10.00;;;;;;;24.11;79.70;101116.39;108161;1254;61260;-53
2023/08/18 08:17:54;;;;;;;13.60;11.40;;;;;;;24.16;79.89;101107.60;108520;1252;59122;-50
2023/08/18 08:20:20;;;;;;;13.60;10.90;;;;;;;24.22;79.66;101105.39;108320;1252;73344;-51
2023/08/18 08:22:48;;;;;;;17.00;13.60;;;;;;;24.32;79.69;101106.56;108885;1253;70013;-53
2023/08/18 08:25:16;;;;;;;12.10;10.60;;;;;;;24.45;79.52;101106.41;108567;1253;72374;-50
2023/08/18 08:27:43;;;;;;;11.70;9.70;;;;;;;24.57;79.08;101106.42;108781;1252;61979;-54
2023/08/18 08:30:11;;;;;;;13.30;11.70;;;;;;;24.71;78.67;101109.43;108612;1255;60329;-56
2023/08/18 08:32:51;;;;;;;11.10;9.60;;;;;;;24.78;78.15;101110.02;107977;1251;74726;-50
2023/08/18 08:35:18;;;;;;;12.80;10.00;;;;;;;24.86;77.71;101106.34;108313;1253;70032;-56
2023/08/18 08:37:44;;;;;;;11.90;10.10;;;;;;;25.01;77.65;101115.83;108364;1252;74031;-51
2023/08/18 08:40:18;;;;;;;13.20;9.20;;;;;;;25.15;76.96;101118.58;108494;1253;59675;-51
2023/08/18 08:42:45;;;;;;;102.90;84.50;;;;;;;25.20;75.69;101111.04;108444;1253;61325;-51
2023/08/18 08:45:12;;;;;;;10.80;9.10;;;;;;;25.28;75.45;101112.83;108649;1253;73315;-51
2023/08/18 08:47:43;;;;;;;11.90;9.40;;;;;;;25.38;75.85;101114.73;108958;1253;70367;-50
2023/08/18 08:50:12;;;;;;;10.40;8.80;;;;;;;25.43;75.58;101114.46;108680;1253;71683;-52
2023/08/18 08:52:39;;;;;;;15.90;14.20;;;;;;;25.54;75.47;101110.23;108002;1252;61256;-52
2023/08/18 08:55:13;;;;;;;14.50;11.30;;;;;;;25.68;75.72;101110.52;108353;1252;60179;-52
2023/08/18 08:57:40;;;;;;;9.80;8.50;;;;;;;25.85;75.34;101108.66;108123;1252;74859;-53
2023/08/18 09:00:09;;;;;;;9.70;8.70;;;;;;;25.99;74.70;101110.80;108534;1253;72167;-53
2023/08/18 09:02:37;;;;;;;9.20;8.30;;;;;;;26.16;74.09;101110.39;108613;1252;70837;-53
2023/08/18 09:05:04;;;;;;;10.30;9.10;;;;;;;26.30;73.82;101107.33;108356;1253;62197;-57
2023/08/18 09:07:30;;;;;;;13.10;11.80;;;;;;;26.40;72.29;101102.97;108362;1251;61228;-52
2023/08/18 09:09:57;;;;;;;14.00;12.50;;;;;;;26.44;71.83;101103.84;108355;1252;59132;-50
2023/08/18 09:12:30;;;;;;;12.20;10.40;;;;;;;26.52;71.73;101102.71;108391;1252;61131;-52
2023/08/18 09:14:59;;;;;;;11.70;10.20;;;;;;;26.61;71.23;101096.47;108105;1252;71358;-53
2023/08/18 09:17:27;;;;;;;12.60;10.10;;;;;;;26.65;70.46;101096.43;108729;1252;61257;-50
2023/08/18 09:19:58;;;;;;;9.70;8.70;;;;;;;26.68;70.35;101093.21;109083;1252;60702;-54
2023/08/18 09:22:24;;;;;;;10.10;8.60;;;;;;;26.77;70.52;101093.30;108698;1253;74598;-52
2023/08/18 09:24:51;;;;;;;9.20;8.30;;;;;;;26.89;70.15;101090.34;108543;1253;61139;-57
2023/08/18 09:27:20;;;;;;;9.20;8.20;;;;;;;27.01;70.31;101089.08;108312;1252;72795;-52
2023/08/18 09:29:47;;;;;;;9.80;7.70;;;;;;;27.10;69.97;101088.62;108469;1253;61826;-54
2023/08/18 09:32:14;;;;;;;9.60;8.60;;;;;;;27.14;69.16;101087.80;107967;1252;61119;-56
2023/08/18 09:34:44;;;;;;;10.40;6.90;;;;;;;27.14;69.45;101084.75;108214;1253;73477;-51
2023/08/18 09:37:11;;;;;;;11.00;9.40;;;;;;;27.16;69.64;101080.54;108653;1252;71627;-52
2023/08/18 09:39:38;;;;;;;10.50;7.30;;;;;;;27.21;69.89;101076.24;108567;1252;72669;-53
2023/08/18 09:42:05;;;;;;;13.90;10.50;;;;;;;27.28;70.05;101073.23;108488;1252;61756;-50
2023/08/18 09:44:33;;;;;;;8.50;6.40;;;;;;;27.34;69.51;101068.69;108388;1253;60403;-56
2023/08/18 09:47:04;;;;;;;15.00;12.70;;;;;;;27.43;69.48;101060.21;108311;1252;73238;-55
2023/08/18 09:49:34;;;;;;;7.80;6.10;;;;;;;27.46;69.15;101057.20;108585;1255;69927;-53
2023/08/18 09:52:06;;;;;;;7.90;5.80;;;;;;;27.49;68.31;101051.41;108355;1252;72353;-56
2023/08/18 09:54:40;;;;;;;5.80;5.10;;;;;;;27.52;68.40;101050.05;108587;1254;60733;-51
2023/08/18 09:57:15;;;;;;;6.80;4.80;;;;;;;27.59;68.30;101051.63;108882;1253;59075;-52
2023/08/18 09:59:44;;;;;;;8.00;4.60;;;;;;;27.61;67.84;101043.29;108547;1252;75137;-55
2023/08/18 10:02:19;;;;;;;7.10;4.50;;;;;;;27.63;68.07;101040.48;108666;1252;71201;-52
2023/08/18 10:04:46;;;;;;;6.10;4.50;;;;;;;27.68;68.11;101039.05;108257;1253;72950;-52
2023/08/18 10:07:13;;;;;;;6.00;4.30;;;;;;;27.71;68.86;101036.85;108359;1252;60769;-53
2023/08/18 10:09:41;;;;;;;5.90;4.80;;;;;;;27.72;68.30;101034.82;108270;1253;59595;-55
2023/08/18 10:12:09;;;;;;;7.00;4.20;;;;;;;27.75;68.22;101034.92;108444;1252;73742;-50
2023/08/18 10:14:37;;;;;;;4.90;4.30;;;;;;;27.80;68.16;101031.51;108603;1253;70454;-57
2023/08/18 10:17:05;;;;;;;32.70;26.80;;;;;;;27.83;68.22;101031.64;108448;1251;71549;-53
2023/08/18 10:19:58;;;;;;;7.90;5.90;;;;;;;27.88;68.37;101026.84;109161;1250;62659;-52
2023/08/18 10:22:28;;;;;;;5.90;4.60;;;;;;;27.93;69.00;101027.25;108282;1252;59883;-51
2023/08/18 10:24:56;;;;;;;12.90;8.40;;;;;;;27.99;68.89;101026.88;108174;1252;75679;-50
2023/08/18 10:27:28;;;;;;;9.20;6.30;;;;;;;27.99;67.62;101016.14;108392;1252;69722;-49
2023/08/18 10:29:57;;;;;;;6.40;4.60;;;;;;;28.01;67.86;101017.54;108187;1252;72744;-55
2023/08/18 10:32:24;;;;;;;6.70;4.90;;;;;;;28.07;67.73;101014.21;108494;1252;63031;-50
2023/08/18 10:34:51;;;;;;;5.90;4.60;;;;;;;28.15;68.20;101018.30;108663;1252;61264;-56
2023/08/18 10:37:22;;;;;;;6.90;4.70;;;;;;;28.22;68.13;101019.72;108890;1251;74831;-53
2023/08/18 10:39:50;;;;;;;6.10;4.50;;;;;;;28.28;67.55;101024.03;108655;1253;71147;-55
2023/08/18 10:42:17;;;;;;;6.80;4.60;;;;;;;28.35;66.54;101023.16;108436;1252;71947;-49
2023/08/18 10:45:00;;;;;;;6.20;4.40;;;;;;;28.41;67.01;101025.01;108468;1252;61781;-50
2023/08/18 10:47:31;;;;;;;5.00;4.50;;;;;;;28.53;66.64;101022.91;108618;1252;60419;-54
2023/08/18 10:49:59;;;;;;;6.60;4.80;;;;;;;28.61;66.32;101023.44;108734;1252;73543;-53
2023/08/18 10:52:29;;;;;;;5.30;4.60;;;;;;;28.65;66.55;101022.30;108746;1255;69996;-53
2023/08/18 10:54:57;;;;;;;6.10;4.40;;;;;;;28.70;67.32;101020.34;108676;1252;72687;-52
2023/08/18 10:57:24;;;;;;;312.00;279.30;;;;;;;28.79;67.64;101019.64;108767;1252;60778;-55
2023/08/18 10:59:50;;;;;;;176.70;157.30;;;;;;;28.87;66.69;101016.50;108688;1253;62130;-54
2023/08/18 11:02:17;;;;;;;34.40;30.40;;;;;;;28.98;66.85;101011.73;108453;1252;73642;-50
2023/08/18 11:04:44;;;;;;;22.10;19.70;;;;;;;29.07;65.96;101012.02;108426;1252;70083;-52